sensor_id;sensor_type;location;lat;lon;timestamp;temperature;humidity
4908;DHT22;64375;51.540;7.364;2023-03-03T00:00:14;3.10;99.90
4908;DHT22;64375;51.540;7.364;2023-03-03T00:02:45;3.10;99.90
4908;DHT22;64375;51.540;7.364;2023-03-03T00:05:21;3.10;99.90
4908;DHT22;64375;51.540;7.364;2023-03-03T00:07:53;3.10;99.90
4908;DHT22;64375;51.540;7.364;2023-03-03T00:10:25;3.30;99.90
4908;DHT22;64375;51.540;7.364;2023-03-03T00:12:56;3.50;99.90
4908;DHT22;64375;51.540;7.364;2023-03-03T00:15:31;3.60;99.90
4908;DHT22;64375;51.540;7.364;2023-03-03T00:18:16;3.50;99.90
4908;DHT22;64375;51.540;7.364;2023-03-03T00:20:54;3.60;99.90
4908;DHT22;64375;51.540;7.364;2023-03-03T00:23:35;3.60;99.90
4908;DHT22;64375;51.540;7.364;2023-03-03T00:26:15;3.50;99.90
4908;DHT22;64375;51.540;7.364;2023-03-03T00:28:46;3.60;99.90
4908;DHT22;64375;51.540;7.364;2023-03-03T00:31:19;3.40;99.90
4908;DHT22;64375;51.540;7.364;2023-03-03T00:33:49;3.30;99.90
4908;DHT22;64375;51.540;7.364;2023-03-03T00:36:28;3.40;99.90
4908;DHT22;64375;51.540;7.364;2023-03-03T00:39:16;3.50;99.90
4908;DHT22;64375;51.540;7.364;2023-03-03T00:41:46;3.70;99.90
4908;DHT22;64375;51.540;7.364;2023-03-03T00:44:44;4.00;99.90
4908;DHT22;64375;51.540;7.364;2023-03-03T00:47:31;4.00;99.90
4908;DHT22;64375;51.540;7.364;2023-03-03T00:50:27;4.30;99.90
4908;DHT22;64375;51.540;7.364;2023-03-03T00:53:16;4.30;99.40
4908;DHT22;64375;51.540;7.364;2023-03-03T00:55:45;4.00;99.90
4908;DHT22;64375;51.540;7.364;2023-03-03T00:58:21;4.00;99.80
4908;DHT22;64375;51.540;7.364;2023-03-03T01:01:01;3.90;99.90
4908;DHT22;64375;51.540;7.364;2023-03-03T01:03:29;3.70;99.90
4908;DHT22;64375;51.540;7.364;2023-03-03T01:06:00;3.50;99.90
4908;DHT22;64375;51.540;7.364;2023-03-03T01:08:32;3.30;99.90
4908;DHT22;64375;51.540;7.364;2023-03-03T01:11:04;3.00;99.90
4908;DHT22;64375;51.540;7.364;2023-03-03T01:13:36;3.10;99.90
4908;DHT22;64375;51.540;7.364;2023-03-03T01:16:06;3.10;99.90
4908;DHT22;64375;51.540;7.364;2023-03-03T01:18:35;3.20;99.90
4908;DHT22;64375;51.540;7.364;2023-03-03T01:21:07;3.30;99.90
4908;DHT22;64375;51.540;7.364;2023-03-03T01:23:38;3.40;99.90
4908;DHT22;64375;51.540;7.364;2023-03-03T01:26:09;3.60;99.90
4908;DHT22;64375;51.540;7.364;2023-03-03T01:28:38;3.80;99.90
4908;DHT22;64375;51.540;7.364;2023-03-03T01:31:06;4.00;99.90
4908;DHT22;64375;51.540;7.364;2023-03-03T01:33:43;4.00;99.90
4908;DHT22;64375;51.540;7.364;2023-03-03T01:36:11;3.90;99.90
4908;DHT22;64375;51.540;7.364;2023-03-03T01:38:45;3.80;99.90
4908;DHT22;64375;51.540;7.364;2023-03-03T01:41:15;3.60;99.90
4908;DHT22;64375;51.540;7.364;2023-03-03T01:43:46;3.50;99.90
4908;DHT22;64375;51.540;7.364;2023-03-03T01:49:16;3.60;99.90
4908;DHT22;64375;51.540;7.364;2023-03-03T01:51:48;3.50;99.90
4908;DHT22;64375;51.540;7.364;2023-03-03T01:54:24;3.50;99.90
4908;DHT22;64375;51.540;7.364;2023-03-03T01:56:58;3.80;99.90
4908;DHT22;64375;51.540;7.364;2023-03-03T01:59:31;4.20;99.90
4908;DHT22;64375;51.540;7.364;2023-03-03T02:02:00;4.40;99.90
4908;DHT22;64375;51.540;7.364;2023-03-03T02:04:46;4.60;99.80
4908;DHT22;64375;51.540;7.364;2023-03-03T02:07:32;4.50;99.30
4908;DHT22;64375;51.540;7.364;2023-03-03T02:10:05;4.50;99.20
4908;DHT22;64375;51.540;7.364;2023-03-03T02:12:48;4.60;99.10
4908;DHT22;64375;51.540;7.364;2023-03-03T02:15:23;4.70;99.20
4908;DHT22;64375;51.540;7.364;2023-03-03T02:17:56;4.60;98.60
4908;DHT22;64375;51.540;7.364;2023-03-03T02:20:37;4.80;99.50
4908;DHT22;64375;51.540;7.364;2023-03-03T02:23:12;4.80;98.70
4908;DHT22;64375;51.540;7.364;2023-03-03T02:25:50;4.70;98.30
4908;DHT22;64375;51.540;7.364;2023-03-03T02:28:33;4.60;98.50
4908;DHT22;64375;51.540;7.364;2023-03-03T02:31:08;4.40;98.60
4908;DHT22;64375;51.540;7.364;2023-03-03T02:33:42;4.40;99.30
4908;DHT22;64375;51.540;7.364;2023-03-03T02:36:18;4.50;99.30
4908;DHT22;64375;51.540;7.364;2023-03-03T02:39:00;4.40;98.80
4908;DHT22;64375;51.540;7.364;2023-03-03T02:41:47;4.30;99.40
4908;DHT22;64375;51.540;7.364;2023-03-03T02:44:28;4.20;99.60
4908;DHT22;64375;51.540;7.364;2023-03-03T02:46:57;4.20;99.20
4908;DHT22;64375;51.540;7.364;2023-03-03T02:49:27;4.30;99.20
4908;DHT22;64375;51.540;7.364;2023-03-03T02:52:07;4.00;99.30
4908;DHT22;64375;51.540;7.364;2023-03-03T02:54:36;3.80;99.80
4908;DHT22;64375;51.540;7.364;2023-03-03T02:57:07;3.80;99.90
4908;DHT22;64375;51.540;7.364;2023-03-03T02:59:40;3.60;99.90
4908;DHT22;64375;51.540;7.364;2023-03-03T03:02:10;3.30;99.90
4908;DHT22;64375;51.540;7.364;2023-03-03T03:04:44;3.20;99.90
4908;DHT22;64375;51.540;7.364;2023-03-03T03:07:14;3.40;99.90
4908;DHT22;64375;51.540;7.364;2023-03-03T03:09:42;3.50;99.90
4908;DHT22;64375;51.540;7.364;2023-03-03T03:12:13;3.50;99.90
4908;DHT22;64375;51.540;7.364;2023-03-03T03:14:43;3.40;99.90
4908;DHT22;64375;51.540;7.364;2023-03-03T03:17:11;3.60;99.90
4908;DHT22;64375;51.540;7.364;2023-03-03T03:19:39;3.50;99.90
4908;DHT22;64375;51.540;7.364;2023-03-03T03:22:10;3.40;99.90
4908;DHT22;64375;51.540;7.364;2023-03-03T03:24:37;3.50;99.90
4908;DHT22;64375;51.540;7.364;2023-03-03T03:27:11;3.50;99.90
4908;DHT22;64375;51.540;7.364;2023-03-03T03:29:39;3.70;99.90
4908;DHT22;64375;51.540;7.364;2023-03-03T03:32:11;3.80;99.90
4908;DHT22;64375;51.540;7.364;2023-03-03T03:34:45;3.80;99.90
4908;DHT22;64375;51.540;7.364;2023-03-03T03:37:37;3.90;99.90
4908;DHT22;64375;51.540;7.364;2023-03-03T03:40:10;3.90;99.90
4908;DHT22;64375;51.540;7.364;2023-03-03T03:42:50;4.00;99.60
4908;DHT22;64375;51.540;7.364;2023-03-03T03:45:24;3.80;99.90
4908;DHT22;64375;51.540;7.364;2023-03-03T03:48:00;3.60;99.90
4908;DHT22;64375;51.540;7.364;2023-03-03T03:50:27;3.60;99.90
4908;DHT22;64375;51.540;7.364;2023-03-03T03:52:56;3.50;99.90
4908;DHT22;64375;51.540;7.364;2023-03-03T03:55:27;3.40;99.90
4908;DHT22;64375;51.540;7.364;2023-03-03T03:58:04;3.60;99.90
4908;DHT22;64375;51.540;7.364;2023-03-03T04:00:32;3.90;99.90
4908;DHT22;64375;51.540;7.364;2023-03-03T04:03:01;4.20;99.80
4908;DHT22;64375;51.540;7.364;2023-03-03T04:05:29;4.10;99.20
4908;DHT22;64375;51.540;7.364;2023-03-03T04:07:57;3.80;99.90
4908;DHT22;64375;51.540;7.364;2023-03-03T04:10:28;3.50;99.90
4908;DHT22;64375;51.540;7.364;2023-03-03T04:12:59;3.20;99.90
4908;DHT22;64375;51.540;7.364;2023-03-03T04:15:40;3.00;99.90
4908;DHT22;64375;51.540;7.364;2023-03-03T04:18:19;2.90;99.90
4908;DHT22;64375;51.540;7.364;2023-03-03T04:20:49;2.80;99.90
4908;DHT22;64375;51.540;7.364;2023-03-03T04:23:18;2.90;99.90
4908;DHT22;64375;51.540;7.364;2023-03-03T04:25:46;3.00;99.90
4908;DHT22;64375;51.540;7.364;2023-03-03T04:28:17;3.30;99.90
4908;DHT22;64375;51.540;7.364;2023-03-03T04:30:45;3.30;99.90
4908;DHT22;64375;51.540;7.364;2023-03-03T04:33:16;3.50;99.90
4908;DHT22;64375;51.540;7.364;2023-03-03T04:35:48;3.70;99.90
4908;DHT22;64375;51.540;7.364;2023-03-03T04:38:23;3.80;99.80
4908;DHT22;64375;51.540;7.364;2023-03-03T04:40:57;3.60;99.90
4908;DHT22;64375;51.540;7.364;2023-03-03T04:43:25;3.70;99.90
4908;DHT22;64375;51.540;7.364;2023-03-03T04:46:04;3.60;99.90
4908;DHT22;64375;51.540;7.364;2023-03-03T04:48:34;3.50;99.90
4908;DHT22;64375;51.540;7.364;2023-03-03T04:51:11;3.20;99.90
4908;DHT22;64375;51.540;7.364;2023-03-03T04:53:45;3.00;99.90
4908;DHT22;64375;51.540;7.364;2023-03-03T04:56:14;3.20;99.90
4908;DHT22;64375;51.540;7.364;2023-03-03T04:58:47;3.20;99.90
4908;DHT22;64375;51.540;7.364;2023-03-03T05:01:24;3.30;99.90
4908;DHT22;64375;51.540;7.364;2023-03-03T05:03:55;3.40;99.90
4908;DHT22;64375;51.540;7.364;2023-03-03T05:06:32;3.70;99.90
4908;DHT22;64375;51.540;7.364;2023-03-03T05:09:00;3.70;99.80
4908;DHT22;64375;51.540;7.364;2023-03-03T05:11:28;3.70;99.90
4908;DHT22;64375;51.540;7.364;2023-03-03T05:13:58;3.70;99.70
4908;DHT22;64375;51.540;7.364;2023-03-03T05:16:26;3.60;99.90
4908;DHT22;64375;51.540;7.364;2023-03-03T05:19:00;3.70;99.90
4908;DHT22;64375;51.540;7.364;2023-03-03T05:21:31;4.00;99.90
4908;DHT22;64375;51.540;7.364;2023-03-03T05:24:03;4.10;99.00
4908;DHT22;64375;51.540;7.364;2023-03-03T05:26:31;4.00;99.80
4908;DHT22;64375;51.540;7.364;2023-03-03T05:29:05;4.20;99.40
4908;DHT22;64375;51.540;7.364;2023-03-03T05:31:33;4.10;98.80
4908;DHT22;64375;51.540;7.364;2023-03-03T05:34:01;3.90;99.20
4908;DHT22;64375;51.540;7.364;2023-03-03T05:36:30;3.70;99.60
4908;DHT22;64375;51.540;7.364;2023-03-03T05:39:06;3.70;99.80
4908;DHT22;64375;51.540;7.364;2023-03-03T05:41:56;3.80;99.90
4908;DHT22;64375;51.540;7.364;2023-03-03T05:44:28;3.70;99.90
4908;DHT22;64375;51.540;7.364;2023-03-03T05:47:02;3.50;99.80
4908;DHT22;64375;51.540;7.364;2023-03-03T05:49:30;3.40;99.90
4908;DHT22;64375;51.540;7.364;2023-03-03T05:52:02;3.80;99.90
4908;DHT22;64375;51.540;7.364;2023-03-03T05:54:30;3.70;99.40
4908;DHT22;64375;51.540;7.364;2023-03-03T05:57:01;3.30;99.80
4908;DHT22;64375;51.540;7.364;2023-03-03T05:59:29;3.10;99.90
4908;DHT22;64375;51.540;7.364;2023-03-03T06:02:00;3.40;99.90
4908;DHT22;64375;51.540;7.364;2023-03-03T06:04:28;3.40;99.90
4908;DHT22;64375;51.540;7.364;2023-03-03T06:06:56;3.50;99.90
4908;DHT22;64375;51.540;7.364;2023-03-03T06:09:32;3.50;99.90
4908;DHT22;64375;51.540;7.364;2023-03-03T06:12:11;3.80;99.90
4908;DHT22;64375;51.540;7.364;2023-03-03T06:14:39;4.20;99.10
4908;DHT22;64375;51.540;7.364;2023-03-03T06:17:09;4.90;99.40
4908;DHT22;64375;51.540;7.364;2023-03-03T06:19:46;5.10;98.30
4908;DHT22;64375;51.540;7.364;2023-03-03T06:22:17;5.80;99.90
4908;DHT22;64375;51.540;7.364;2023-03-03T06:24:50;6.20;97.10
4908;DHT22;64375;51.540;7.364;2023-03-03T06:27:19;5.70;95.60
4908;DHT22;64375;51.540;7.364;2023-03-03T06:29:46;5.70;96.20
4908;DHT22;64375;51.540;7.364;2023-03-03T06:32:22;6.20;98.50
4908;DHT22;64375;51.540;7.364;2023-03-03T06:34:52;6.50;95.80
4908;DHT22;64375;51.540;7.364;2023-03-03T06:37:20;6.80;96.20
4908;DHT22;64375;51.540;7.364;2023-03-03T06:39:50;7.00;95.70
4908;DHT22;64375;51.540;7.364;2023-03-03T06:42:21;7.10;96.20
4908;DHT22;64375;51.540;7.364;2023-03-03T06:44:53;6.90;93.70
4908;DHT22;64375;51.540;7.364;2023-03-03T06:47:21;6.70;94.60
4908;DHT22;64375;51.540;7.364;2023-03-03T06:49:52;6.80;94.40
4908;DHT22;64375;51.540;7.364;2023-03-03T06:52:22;6.30;93.90
4908;DHT22;64375;51.540;7.364;2023-03-03T06:54:57;5.90;94.60
4908;DHT22;64375;51.540;7.364;2023-03-03T06:57:29;5.50;94.90
4908;DHT22;64375;51.540;7.364;2023-03-03T07:00:14;5.10;95.70
4908;DHT22;64375;51.540;7.364;2023-03-03T07:02:50;5.20;96.90
4908;DHT22;64375;51.540;7.364;2023-03-03T07:05:23;5.30;97.40
4908;DHT22;64375;51.540;7.364;2023-03-03T07:07:53;5.30;95.90
4908;DHT22;64375;51.540;7.364;2023-03-03T07:10:25;5.30;96.30
4908;DHT22;64375;51.540;7.364;2023-03-03T07:12:55;5.00;95.70
4908;DHT22;64375;51.540;7.364;2023-03-03T07:15:30;4.80;96.50
4908;DHT22;64375;51.540;7.364;2023-03-03T07:18:07;4.40;96.40
4908;DHT22;64375;51.540;7.364;2023-03-03T07:20:40;4.00;97.20
4908;DHT22;64375;51.540;7.364;2023-03-03T07:23:17;3.70;98.00
4908;DHT22;64375;51.540;7.364;2023-03-03T07:25:50;3.70;98.40
4908;DHT22;64375;51.540;7.364;2023-03-03T07:28:22;3.70;99.30
4908;DHT22;64375;51.540;7.364;2023-03-03T07:30:50;4.00;98.40
4908;DHT22;64375;51.540;7.364;2023-03-03T07:33:27;4.30;98.60
4908;DHT22;64375;51.540;7.364;2023-03-03T07:36:03;4.40;97.60
4908;DHT22;64375;51.540;7.364;2023-03-03T07:38:37;4.40;97.50
4908;DHT22;64375;51.540;7.364;2023-03-03T07:41:12;4.30;97.30
4908;DHT22;64375;51.540;7.364;2023-03-03T07:43:47;4.10;97.50
4908;DHT22;64375;51.540;7.364;2023-03-03T07:46:24;3.80;97.90
4908;DHT22;64375;51.540;7.364;2023-03-03T07:48:55;3.60;99.00
4908;DHT22;64375;51.540;7.364;2023-03-03T07:51:26;3.50;99.20
4908;DHT22;64375;51.540;7.364;2023-03-03T07:54:09;3.50;98.90
4908;DHT22;64375;51.540;7.364;2023-03-03T07:56:39;3.60;99.00
4908;DHT22;64375;51.540;7.364;2023-03-03T07:59:18;3.70;99.00
4908;DHT22;64375;51.540;7.364;2023-03-03T08:01:50;3.50;99.30
4908;DHT22;64375;51.540;7.364;2023-03-03T08:04:23;3.70;99.10
4908;DHT22;64375;51.540;7.364;2023-03-03T08:06:53;4.00;98.60
4908;DHT22;64375;51.540;7.364;2023-03-03T08:09:45;4.10;98.10
4908;DHT22;64375;51.540;7.364;2023-03-03T08:12:37;3.90;98.10
4908;DHT22;64375;51.540;7.364;2023-03-03T08:15:23;3.80;98.70
4908;DHT22;64375;51.540;7.364;2023-03-03T08:17:53;4.00;98.70
4908;DHT22;64375;51.540;7.364;2023-03-03T08:20:41;4.10;99.30
4908;DHT22;64375;51.540;7.364;2023-03-03T08:23:10;4.40;98.70
4908;DHT22;64375;51.540;7.364;2023-03-03T08:25:44;4.80;99.20
4908;DHT22;64375;51.540;7.364;2023-03-03T08:28:18;5.00;97.00
4908;DHT22;64375;51.540;7.364;2023-03-03T08:30:49;4.70;97.00
4908;DHT22;64375;51.540;7.364;2023-03-03T08:33:48;4.50;97.70
4908;DHT22;64375;51.540;7.364;2023-03-03T08:36:16;4.40;97.50
4908;DHT22;64375;51.540;7.364;2023-03-03T08:38:46;4.20;97.70
4908;DHT22;64375;51.540;7.364;2023-03-03T08:41:14;3.80;98.20
4908;DHT22;64375;51.540;7.364;2023-03-03T08:43:48;3.90;99.50
4908;DHT22;64375;51.540;7.364;2023-03-03T08:46:16;4.00;98.70
4908;DHT22;64375;51.540;7.364;2023-03-03T08:48:44;3.90;98.90
4908;DHT22;64375;51.540;7.364;2023-03-03T08:51:14;3.90;98.50
4908;DHT22;64375;51.540;7.364;2023-03-03T08:54:02;3.90;98.80
4908;DHT22;64375;51.540;7.364;2023-03-03T08:56:42;3.90;99.00
4908;DHT22;64375;51.540;7.364;2023-03-03T08:59:17;4.00;98.70
4908;DHT22;64375;51.540;7.364;2023-03-03T09:01:48;4.10;98.70
4908;DHT22;64375;51.540;7.364;2023-03-03T09:04:18;3.90;98.80
4908;DHT22;64375;51.540;7.364;2023-03-03T09:06:46;3.90;99.90
4908;DHT22;64375;51.540;7.364;2023-03-03T09:09:19;3.80;99.10
4908;DHT22;64375;51.540;7.364;2023-03-03T09:11:53;3.50;99.60
4908;DHT22;64375;51.540;7.364;2023-03-03T09:14:27;3.50;99.50
4908;DHT22;64375;51.540;7.364;2023-03-03T09:16:56;3.60;99.50
4908;DHT22;64375;51.540;7.364;2023-03-03T09:19:28;3.80;99.40
4908;DHT22;64375;51.540;7.364;2023-03-03T09:22:18;4.10;99.20
4908;DHT22;64375;51.540;7.364;2023-03-03T09:24:48;4.10;98.40
4908;DHT22;64375;51.540;7.364;2023-03-03T09:27:26;4.30;98.80
4908;DHT22;64375;51.540;7.364;2023-03-03T09:29:58;4.30;98.10
4908;DHT22;64375;51.540;7.364;2023-03-03T09:32:33;4.60;97.80
4908;DHT22;64375;51.540;7.364;2023-03-03T09:35:25;4.80;98.00
4908;DHT22;64375;51.540;7.364;2023-03-03T09:37:53;4.80;97.00
4908;DHT22;64375;51.540;7.364;2023-03-03T09:40:40;4.60;97.20
4908;DHT22;64375;51.540;7.364;2023-03-03T09:43:28;4.40;97.40
4908;DHT22;64375;51.540;7.364;2023-03-03T09:46:15;4.70;97.90
4908;DHT22;64375;51.540;7.364;2023-03-03T09:48:57;5.00;96.70
4908;DHT22;64375;51.540;7.364;2023-03-03T09:55:03;4.70;96.70
4908;DHT22;64375;51.540;7.364;2023-03-03T09:57:54;4.70;97.10
4908;DHT22;64375;51.540;7.364;2023-03-03T10:00:45;4.90;97.00
4908;DHT22;64375;51.540;7.364;2023-03-03T10:06:31;5.10;96.40
4908;DHT22;64375;51.540;7.364;2023-03-03T10:09:30;4.90;96.20
4908;DHT22;64375;51.540;7.364;2023-03-03T10:12:09;5.10;96.70
4908;DHT22;64375;51.540;7.364;2023-03-03T10:15:15;5.00;96.30
4908;DHT22;64375;51.540;7.364;2023-03-03T10:17:49;5.00;96.20
4908;DHT22;64375;51.540;7.364;2023-03-03T10:20:37;4.90;96.80
4908;DHT22;64375;51.540;7.364;2023-03-03T10:23:44;5.10;96.60
4908;DHT22;64375;51.540;7.364;2023-03-03T10:27:01;4.90;96.50
4908;DHT22;64375;51.540;7.364;2023-03-03T10:29:48;4.70;96.80
4908;DHT22;64375;51.540;7.364;2023-03-03T10:32:45;4.60;96.60
4908;DHT22;64375;51.540;7.364;2023-03-03T10:35:45;4.50;98.30
4908;DHT22;64375;51.540;7.364;2023-03-03T10:38:53;4.60;96.90
4908;DHT22;64375;51.540;7.364;2023-03-03T10:41:47;4.50;96.90
4908;DHT22;64375;51.540;7.364;2023-03-03T10:44:54;4.20;97.30
4908;DHT22;64375;51.540;7.364;2023-03-03T10:47:38;4.30;97.40
4908;DHT22;64375;51.540;7.364;2023-03-03T10:50:16;4.40;98.10
4908;DHT22;64375;51.540;7.364;2023-03-03T10:52:48;4.60;97.20
4908;DHT22;64375;51.540;7.364;2023-03-03T10:55:34;4.40;97.10
4908;DHT22;64375;51.540;7.364;2023-03-03T11:01:11;4.40;97.20
4908;DHT22;64375;51.540;7.364;2023-03-03T11:07:01;3.90;98.40
4908;DHT22;64375;51.540;7.364;2023-03-03T11:09:39;4.10;98.80
4908;DHT22;64375;51.540;7.364;2023-03-03T11:12:23;4.20;97.90
4908;DHT22;64375;51.540;7.364;2023-03-03T11:15:26;4.10;97.40
4908;DHT22;64375;51.540;7.364;2023-03-03T11:18:24;4.10;98.10
4908;DHT22;64375;51.540;7.364;2023-03-03T11:21:07;4.40;97.90
4908;DHT22;64375;51.540;7.364;2023-03-03T11:27:04;4.40;97.20
4908;DHT22;64375;51.540;7.364;2023-03-03T11:29:56;4.30;97.30
4908;DHT22;64375;51.540;7.364;2023-03-03T11:32:34;4.30;97.60
4908;DHT22;64375;51.540;7.364;2023-03-03T11:35:38;4.30;97.60
4908;DHT22;64375;51.540;7.364;2023-03-03T11:41:26;4.60;97.70
4908;DHT22;64375;51.540;7.364;2023-03-03T11:44:04;4.70;97.30
4908;DHT22;64375;51.540;7.364;2023-03-03T11:46:47;4.80;97.40
4908;DHT22;64375;51.540;7.364;2023-03-03T11:49:33;4.70;96.70
4908;DHT22;64375;51.540;7.364;2023-03-03T11:52:23;4.70;97.40
4908;DHT22;64375;51.540;7.364;2023-03-03T11:54:59;4.70;97.60
4908;DHT22;64375;51.540;7.364;2023-03-03T11:57:47;4.80;97.30
4908;DHT22;64375;51.540;7.364;2023-03-03T12:00:30;4.90;98.20
4908;DHT22;64375;51.540;7.364;2023-03-03T12:06:20;5.10;96.40
4908;DHT22;64375;51.540;7.364;2023-03-03T12:09:16;4.80;96.90
4908;DHT22;64375;51.540;7.364;2023-03-03T12:12:02;4.70;96.90
4908;DHT22;64375;51.540;7.364;2023-03-03T12:17:37;3.90;98.10
4908;DHT22;64375;51.540;7.364;2023-03-03T12:20:15;3.80;98.40
4908;DHT22;64375;51.540;7.364;2023-03-03T12:23:02;3.80;99.10
4908;DHT22;64375;51.540;7.364;2023-03-03T12:25:42;3.90;98.90
4908;DHT22;64375;51.540;7.364;2023-03-03T12:28:16;4.60;99.90
4908;DHT22;64375;51.540;7.364;2023-03-03T12:31:15;4.80;98.40
4908;DHT22;64375;51.540;7.364;2023-03-03T12:33:56;4.50;97.90
4908;DHT22;64375;51.540;7.364;2023-03-03T12:36:35;4.30;97.90
4908;DHT22;64375;51.540;7.364;2023-03-03T12:39:26;4.20;98.60
4908;DHT22;64375;51.540;7.364;2023-03-03T12:42:15;4.30;98.30
4908;DHT22;64375;51.540;7.364;2023-03-03T12:45:10;4.40;98.20
4908;DHT22;64375;51.540;7.364;2023-03-03T12:47:57;4.60;97.90
4908;DHT22;64375;51.540;7.364;2023-03-03T12:50:35;5.00;98.40
4908;DHT22;64375;51.540;7.364;2023-03-03T12:53:26;5.10;97.60
4908;DHT22;64375;51.540;7.364;2023-03-03T12:56:08;5.40;97.80
4908;DHT22;64375;51.540;7.364;2023-03-03T12:58:58;5.40;96.70
4908;DHT22;64375;51.540;7.364;2023-03-03T13:01:39;5.60;96.60
4908;DHT22;64375;51.540;7.364;2023-03-03T13:04:39;5.70;96.20
4908;DHT22;64375;51.540;7.364;2023-03-03T13:07:17;5.80;96.00
4908;DHT22;64375;51.540;7.364;2023-03-03T13:10:10;5.70;95.90
4908;DHT22;64375;51.540;7.364;2023-03-03T13:12:48;5.40;96.30
4908;DHT22;64375;51.540;7.364;2023-03-03T13:15:32;5.50;96.60
4908;DHT22;64375;51.540;7.364;2023-03-03T13:18:18;5.70;96.50
4908;DHT22;64375;51.540;7.364;2023-03-03T13:20:59;5.80;96.00
4908;DHT22;64375;51.540;7.364;2023-03-03T13:23:46;5.80;95.70
4908;DHT22;64375;51.540;7.364;2023-03-03T13:26:25;5.90;96.20
4908;DHT22;64375;51.540;7.364;2023-03-03T13:29:03;5.80;95.20
4908;DHT22;64375;51.540;7.364;2023-03-03T13:31:40;5.60;95.80
4908;DHT22;64375;51.540;7.364;2023-03-03T13:34:26;5.50;96.60
4908;DHT22;64375;51.540;7.364;2023-03-03T13:37:21;6.30;99.00
4908;DHT22;64375;51.540;7.364;2023-03-03T13:40:02;6.70;96.00
4908;DHT22;64375;51.540;7.364;2023-03-03T13:42:39;6.70;94.90
4908;DHT22;64375;51.540;7.364;2023-03-03T13:45:17;6.30;94.80
4908;DHT22;64375;51.540;7.364;2023-03-03T13:48:02;5.70;94.90
4908;DHT22;64375;51.540;7.364;2023-03-03T13:50:39;5.80;96.80
4908;DHT22;64375;51.540;7.364;2023-03-03T13:53:34;6.30;96.20
4908;DHT22;64375;51.540;7.364;2023-03-03T13:56:26;6.40;95.10
4908;DHT22;64375;51.540;7.364;2023-03-03T13:59:05;6.40;95.90
4908;DHT22;64375;51.540;7.364;2023-03-03T14:01:48;6.70;97.30
4908;DHT22;64375;51.540;7.364;2023-03-03T14:04:37;6.90;94.40
4908;DHT22;64375;51.540;7.364;2023-03-03T14:07:11;7.00;94.30
4908;DHT22;64375;51.540;7.364;2023-03-03T14:09:50;7.20;94.80
4908;DHT22;64375;51.540;7.364;2023-03-03T14:12:32;7.60;95.40
4908;DHT22;64375;51.540;7.364;2023-03-03T14:15:08;7.60;93.20
4908;DHT22;64375;51.540;7.364;2023-03-03T14:18:20;7.50;93.30
4908;DHT22;64375;51.540;7.364;2023-03-03T14:21:03;7.40;93.00
4908;DHT22;64375;51.540;7.364;2023-03-03T14:23:39;6.70;93.30
4908;DHT22;64375;51.540;7.364;2023-03-03T14:26:10;6.50;94.00
4908;DHT22;64375;51.540;7.364;2023-03-03T14:28:40;6.00;94.40
4908;DHT22;64375;51.540;7.364;2023-03-03T14:31:21;5.70;95.10
4908;DHT22;64375;51.540;7.364;2023-03-03T14:33:59;5.90;96.50
4908;DHT22;64375;51.540;7.364;2023-03-03T14:36:30;6.30;96.80
4908;DHT22;64375;51.540;7.364;2023-03-03T14:39:32;6.60;95.50
4908;DHT22;64375;51.540;7.364;2023-03-03T14:42:12;7.00;95.50
4908;DHT22;64375;51.540;7.364;2023-03-03T14:44:53;7.30;94.70
4908;DHT22;64375;51.540;7.364;2023-03-03T14:47:22;7.60;93.90
4908;DHT22;64375;51.540;7.364;2023-03-03T14:53:30;8.20;93.30
4908;DHT22;64375;51.540;7.364;2023-03-03T14:56:20;8.30;92.50
4908;DHT22;64375;51.540;7.364;2023-03-03T14:58:50;8.00;93.30
4908;DHT22;64375;51.540;7.364;2023-03-03T15:01:30;8.50;94.30
4908;DHT22;64375;51.540;7.364;2023-03-03T15:04:01;8.60;92.70
4908;DHT22;64375;51.540;7.364;2023-03-03T15:06:34;8.90;92.50
4908;DHT22;64375;51.540;7.364;2023-03-03T15:09:29;8.70;91.30
4908;DHT22;64375;51.540;7.364;2023-03-03T15:12:02;7.90;91.10
4908;DHT22;64375;51.540;7.364;2023-03-03T15:14:38;7.50;91.60
4908;DHT22;64375;51.540;7.364;2023-03-03T15:17:29;7.10;92.30
4908;DHT22;64375;51.540;7.364;2023-03-03T15:20:23;6.90;92.70
4908;DHT22;64375;51.540;7.364;2023-03-03T15:23:20;6.60;93.40
4908;DHT22;64375;51.540;7.364;2023-03-03T15:26:02;6.40;93.50
4908;DHT22;64375;51.540;7.364;2023-03-03T15:31:38;6.10;94.30
4908;DHT22;64375;51.540;7.364;2023-03-03T15:34:22;6.60;96.90
4908;DHT22;64375;51.540;7.364;2023-03-03T15:36:56;7.50;99.20
4908;DHT22;64375;51.540;7.364;2023-03-03T15:39:39;8.50;97.10
4908;DHT22;64375;51.540;7.364;2023-03-03T15:42:13;8.70;93.30
4908;DHT22;64375;51.540;7.364;2023-03-03T15:44:50;8.70;92.40
4908;DHT22;64375;51.540;7.364;2023-03-03T15:47:45;9.00;93.80
4908;DHT22;64375;51.540;7.364;2023-03-03T15:50:25;9.80;95.70
4908;DHT22;64375;51.540;7.364;2023-03-03T15:53:04;10.70;93.10
4908;DHT22;64375;51.540;7.364;2023-03-03T15:55:58;10.40;89.70
4908;DHT22;64375;51.540;7.364;2023-03-03T15:59:11;10.00;88.90
4908;DHT22;64375;51.540;7.364;2023-03-03T16:01:53;9.50;89.00
4908;DHT22;64375;51.540;7.364;2023-03-03T16:04:29;9.10;90.50
4908;DHT22;64375;51.540;7.364;2023-03-03T16:07:08;9.30;91.60
4908;DHT22;64375;51.540;7.364;2023-03-03T16:09:46;9.30;90.50
4908;DHT22;64375;51.540;7.364;2023-03-03T16:12:33;9.20;90.40
4908;DHT22;64375;51.540;7.364;2023-03-03T16:15:20;9.10;90.50
4908;DHT22;64375;51.540;7.364;2023-03-03T16:18:07;9.00;90.80
4908;DHT22;64375;51.540;7.364;2023-03-03T16:20:49;8.90;90.70
4908;DHT22;64375;51.540;7.364;2023-03-03T16:23:30;8.90;91.10
4908;DHT22;64375;51.540;7.364;2023-03-03T16:29:39;10.00;92.20
4908;DHT22;64375;51.540;7.364;2023-03-03T16:32:15;10.00;90.80
4908;DHT22;64375;51.540;7.364;2023-03-03T16:34:55;10.10;90.40
4908;DHT22;64375;51.540;7.364;2023-03-03T16:37:28;10.00;88.90
4908;DHT22;64375;51.540;7.364;2023-03-03T16:40:08;9.80;89.40
4908;DHT22;64375;51.540;7.364;2023-03-03T16:42:44;10.00;90.60
4908;DHT22;64375;51.540;7.364;2023-03-03T16:45:21;9.90;90.10
4908;DHT22;64375;51.540;7.364;2023-03-03T16:48:21;9.80;88.70
4908;DHT22;64375;51.540;7.364;2023-03-03T16:51:15;9.60;88.10
4908;DHT22;64375;51.540;7.364;2023-03-03T16:54:04;9.50;87.80
4908;DHT22;64375;51.540;7.364;2023-03-03T16:56:37;9.90;91.30
4908;DHT22;64375;51.540;7.364;2023-03-03T16:59:28;10.10;90.70
4908;DHT22;64375;51.540;7.364;2023-03-03T17:05:27;10.00;88.10
4908;DHT22;64375;51.540;7.364;2023-03-03T17:08:11;9.90;86.90
4908;DHT22;64375;51.540;7.364;2023-03-03T17:10:58;9.80;87.60
4908;DHT22;64375;51.540;7.364;2023-03-03T17:13:50;10.40;91.30
4908;DHT22;64375;51.540;7.364;2023-03-03T17:16:38;10.60;90.50
4908;DHT22;64375;51.540;7.364;2023-03-03T17:19:33;10.50;87.10
4908;DHT22;64375;51.540;7.364;2023-03-03T17:22:13;10.00;83.60
4908;DHT22;64375;51.540;7.364;2023-03-03T17:25:04;9.70;84.60
4908;DHT22;64375;51.540;7.364;2023-03-03T17:27:52;10.00;89.10
4908;DHT22;64375;51.540;7.364;2023-03-03T17:30:27;10.30;90.70
4908;DHT22;64375;51.540;7.364;2023-03-03T17:33:21;9.90;84.70
4908;DHT22;64375;51.540;7.364;2023-03-03T17:36:06;9.60;84.90
4908;DHT22;64375;51.540;7.364;2023-03-03T17:38:52;9.60;87.90
4908;DHT22;64375;51.540;7.364;2023-03-03T17:41:29;10.10;90.90
4908;DHT22;64375;51.540;7.364;2023-03-03T17:44:11;10.20;88.20
4908;DHT22;64375;51.540;7.364;2023-03-03T17:46:46;10.10;85.30
4908;DHT22;64375;51.540;7.364;2023-03-03T17:50:01;10.00;84.50
4908;DHT22;64375;51.540;7.364;2023-03-03T17:52:45;10.40;90.30